• Join FlightAware (Why Join?)
  • Login
  • US Flag 
05:18PM EDT


 

Airport Tracker/Info


-or-


 

Live Flight TrackerFlight Track Log ✈ N36715 ✈ 18-May-2013 ✈ YSUN - YBCG / OOL

Flight Track Log - Related Links

Times and Time Zones

All times are in EDT time to prevent confusion due to time zone crossing. See the N36715 flight status page for this flight to view local times or setup timezone preferences in your user account.

Time Position Orientation Groundspeed Altitude Reporting Facility
EDT Latitude Longitude Course Direction KTS MPH feet Rate Location/Type
05:02PM -30.4419 150.9665 12° North 134 154 4,100  Level Aus ATC (RADAR)
05:03PM -30.4167 150.9726 12° North 157 181 5,700 2,580 Climbing Aus ATC (RADAR)
05:04PM -30.4124 151.0050 81° East 188 216 6,900 2,400 Climbing Aus ATC (RADAR)
05:04PM -30.3883 151.0380 50° Northeast 199 229 8,500 2,400 Climbing Aus ATC (RADAR)
05:05PM -30.3574 151.0811 50° Northeast 210 242 10,500 2,220 Climbing Aus ATC (RADAR)
05:06PM -30.3347 151.1135 51° Northeast 220 253 11,700 2,220 Climbing Aus ATC (RADAR)
05:06PM -30.3123 151.1457 51° Northeast 221 254 13,100 2,520 Climbing Aus ATC (RADAR)
05:07PM -30.2902 151.1770 51° Northeast 219 252 14,700 2,400 Climbing Aus ATC (RADAR)
05:07PM -30.2678 151.2090 51° Northeast 220 253 15,900 2,100 Climbing Aus ATC (RADAR)
05:08PM -30.2480 151.2372 51° Northeast 225 259 17,000 2,280 Climbing Aus ATC (RADAR)
05:08PM -30.2250 151.2694 50° Northeast 225 259 18,400 2,100 Climbing Aus ATC (RADAR)
05:09PM -30.2020 151.3032 52° Northeast 230 265 19,500 2,160 Climbing Aus ATC (RADAR)
05:10PM -30.1650 151.3554 51° Northeast 228 262 21,700 2,160 Climbing Aus ATC (RADAR)
05:11PM -30.1380 151.3928 50° Northeast 230 265 22,900 1,260 Climbing Aus ATC (RADAR)
05:11PM -30.1164 151.4223 50° Northeast 237 273 23,200 240 Climbing Aus ATC (RADAR)
05:12PM -30.0868 151.4641 51° Northeast 277 319 23,200 -120 Level Aus ATC (RADAR)
05:12PM -30.0556 151.5107 52° Northeast 301 346 23,100 -120 Descending Aus ATC (RADAR)
05:13PM -30.0219 151.5597 52° Northeast 328 377 23,100  Level Aus ATC (RADAR)
05:13PM -29.9864 151.6054 48° Northeast 326 375 23,100  Level Aus ATC (RADAR)
05:14PM -29.9524 151.6532 51° Northeast 330 380 23,100  Level Aus ATC (RADAR)
05:15PM -29.8841 151.7493 51° Northeast 333 383 23,100  Level Aus ATC (RADAR)
05:15PM -29.8693 151.7691 49° Northeast 331 381 23,100  Level Aus ATC (RADAR)
05:16PM -29.8351 151.8174 51° Northeast 332 382 23,100  Level Aus ATC (RADAR)
05:17PM -29.8010 151.8650 50° Northeast 331 381 23,100  Level Aus ATC (RADAR)
05:17PM -29.7611 151.9190 50° Northeast 332 382 23,100  Level Aus ATC (RADAR)
05:18PM -29.7320 151.9610 52° Northeast 335 386 23,100  Level Aus ATC (RADAR)
05:18PM -29.6975 152.0088 50° Northeast 333 383 23,100  Level Aus ATC (RADAR)
05:19PM -29.6676 152.0499 50° Northeast 335 386 23,100  Level Aus ATC (RADAR)
05:19PM -29.6328 152.0978 50° Northeast 335 386 23,100  Level Aus ATC (RADAR)
05:21PM -29.5683 152.1871 50° Northeast 336 387 23,100  Level Aus ATC (RADAR)
05:21PM -29.5386 152.2289 51° Northeast 336 387 23,100  Level Aus ATC (RADAR)
05:22PM -29.5037 152.2769 50° Northeast 337 388 23,100  Level Aus ATC (RADAR)
05:22PM -29.4685 152.3249 50° Northeast 335 386 23,100  Level Aus ATC (RADAR)
05:23PM -29.4336 152.3719 50° Northeast 333 383 23,100  Level Aus ATC (RADAR)
05:23PM -29.4042 152.4135 51° Northeast 334 384 23,100  Level Aus ATC (RADAR)
05:24PM -29.3646 152.4673 50° Northeast 332 382 23,100  Level Aus ATC (RADAR)
05:24PM -29.3349 152.5080 50° Northeast 333 383 23,100  Level Aus ATC (RADAR)
05:26PM -29.2652 152.6038 50° Northeast 335 386 23,100  Level Aus ATC (RADAR)
05:26PM -29.2299 152.6523 50° Northeast 339 390 23,100  Level Aus ATC (RADAR)
05:27PM -29.1946 152.7009 50° Northeast 340 391 23,100  Level Aus ATC (RADAR)
05:27PM -29.1592 152.7486 50° Northeast 338 389 23,100  Level Aus ATC (RADAR)
05:28PM -29.1238 152.7970 50° Northeast 340 391 23,100  Level Aus ATC (RADAR)
05:28PM -29.0885 152.8452 50° Northeast 339 390 23,100  Level Aus ATC (RADAR)
05:29PM -29.0532 152.8928 50° Northeast 337 388 23,100  Level Aus ATC (RADAR)
05:30PM -29.0178 152.9407 50° Northeast 337 388 23,100  Level Aus ATC (RADAR)
05:31PM -28.9526 153.0291 50° Northeast 335 386 23,100  Level Aus ATC (RADAR)
05:31PM -28.9221 153.0694 49° Northeast 335 386 23,100 -300 Level Aus ATC (RADAR)
05:32PM -28.8871 153.1177 50° Northeast 337 388 22,800 -1,380 Descending Aus ATC (RADAR)
05:32PM -28.8444 153.1758 50° Northeast 356 410 21,400 -2,100 Descending Aus ATC (RADAR)
05:33PM -28.8114 153.2198 49° Northeast 362 417 20,400 -1,980 Descending Aus ATC (RADAR)
05:34PM -28.7734 153.2709 50° Northeast 360 414 19,300 -1,920 Descending Aus ATC (RADAR)
05:34PM -28.7355 153.3204 49° Northeast 355 409 18,200 -1,920 Descending Aus ATC (RADAR)
05:35PM -28.6910 153.3567 36° Northeast 339 390 17,100 -1,920 Descending Aus ATC (RADAR)
05:36PM -28.6153 153.4189 36° Northeast 334 384 15,200 -1,920 Descending Aus ATC (RADAR)
05:36PM -28.5724 153.4549 36° Northeast 327 376 14,100 -2,100 Descending Aus ATC (RADAR)
05:37PM -28.5300 153.4898 36° Northeast 322 371 12,800 -1,860 Descending Aus ATC (RADAR)
05:38PM -28.4831 153.5286 36° Northeast 312 359 11,800 -1,740 Descending Aus ATC (RADAR)
05:38PM -28.4481 153.5574 36° Northeast 311 358 10,800 -1,800 Descending Aus ATC (RADAR)
05:39PM -28.4086 153.5902 36° Northeast 301 346 9,900 -1,560 Descending Aus ATC (RADAR)
05:39PM -28.3635 153.6252 34° Northeast 294 338 8,900 -1,560 Descending Aus ATC (RADAR)
05:40PM -28.3178 153.6367 12° North 290 334 8,000 -1,800 Descending Aus ATC (RADAR)
05:41PM -28.2285 153.6319 357° North 272 313 5,800 -1,920 Descending Aus ATC (RADAR)
05:41PM -28.1999 153.6249 348° North 257 296 5,000 -1,860 Descending Aus ATC (RADAR)
05:42PM -28.1712 153.6074 332° Northwest 239 275 4,100 -1,800 Descending Aus ATC (RADAR)
05:43PM -28.1375 153.5786 323° Northwest 228 262 2,900 -1,620 Descending Aus ATC (RADAR)
05:43PM -28.1094 153.5567 326° Northwest 209 241 2,100 -1,200 Descending Aus ATC (RADAR)
05:44PM -28.1008 153.5334 293° West 170 196 1,600 -720 Descending Aus ATC (RADAR)
05:44PM -28.1116 153.5113 241° Southwest 120 138 1,300 -660 Descending Aus ATC (RADAR)
05:45PM -28.1212 153.4965 234° Southwest 118 136 900 -660 Descending Aus ATC (RADAR)
05:46PM -28.1570 153.5010 174° South 102 117 100 -600 Descending Aus ATC (RADAR)